createdAt,value
2019-05-22T00:00:31.524Z,99.99
2019-05-22T00:01:31.547Z,99.99
2019-05-22T00:02:31.625Z,99.99
2019-05-22T00:03:31.641Z,99.99
2019-05-22T00:04:31.689Z,99.99
2019-05-22T00:05:31.737Z,99.99
2019-05-22T00:06:31.790Z,99.99
2019-05-22T00:07:31.865Z,99.99
2019-05-22T00:08:31.945Z,99.99
2019-05-22T00:09:31.929Z,99.99
2019-05-22T00:10:31.973Z,99.99
2019-05-22T00:11:32.026Z,99.99
2019-05-22T00:12:45.746Z,99.99
2019-05-22T00:13:32.113Z,99.99
2019-05-22T00:14:32.159Z,99.99
2019-05-22T00:15:32.282Z,99.99
2019-05-22T00:16:32.253Z,99.99
2019-05-22T00:17:32.336Z,99.99
2019-05-22T00:18:32.349Z,99.99
2019-05-22T00:19:32.394Z,99.99
2019-05-22T00:20:32.442Z,99.99
2019-05-22T00:21:32.488Z,99.99
2019-05-22T00:22:32.570Z,99.99
2019-05-22T00:23:32.589Z,99.99
2019-05-22T00:24:32.631Z,99.99
2019-05-22T00:25:33.249Z,99.99
2019-05-22T00:26:32.774Z,99.99
2019-05-22T00:27:32.793Z,99.99
2019-05-22T00:28:32.837Z,99.99
2019-05-22T00:29:32.869Z,99.99
2019-05-22T00:30:32.916Z,99.99
2019-05-22T00:31:32.965Z,99.99
2019-05-22T00:32:33.014Z,99.99
2019-05-22T00:33:36.186Z,99.99
2019-05-22T00:34:33.114Z,99.99
2019-05-22T00:35:33.165Z,99.99
2019-05-22T00:36:33.197Z,99.99
2019-05-22T00:37:33.246Z,99.99
2019-05-22T00:38:33.307Z,99.99
2019-05-22T00:39:33.346Z,99.99
2019-05-22T00:40:33.416Z,99.99
2019-05-22T00:41:33.434Z,99.99
2019-05-22T00:42:33.482Z,99.99
2019-05-22T00:43:33.548Z,99.99
2019-05-22T00:44:33.579Z,99.99
2019-05-22T00:45:33.622Z,99.99
2019-05-22T00:46:33.675Z,99.99
2019-05-22T00:47:33.713Z,99.99
2019-05-22T00:48:33.777Z,99.99
2019-05-22T00:49:33.812Z,99.99
2019-05-22T00:50:33.855Z,99.99
2019-05-22T00:51:33.905Z,99.99
2019-05-22T00:52:33.953Z,99.99
2019-05-22T00:53:34.050Z,99.99
2019-05-22T00:54:34.043Z,99.99
2019-05-22T00:55:34.123Z,99.99
2019-05-22T00:56:34.139Z,99.99
2019-05-22T00:57:34.184Z,99.99
2019-05-22T00:58:34.261Z,99.99
2019-05-22T00:59:34.277Z,99.99
2019-05-22T01:00:34.954Z,99.99
2019-05-22T01:01:34.373Z,99.99
2019-05-22T01:02:34.420Z,99.99
2019-05-22T01:03:34.606Z,99.99
2019-05-22T01:04:34.516Z,99.99
2019-05-22T01:05:34.564Z,99.99
2019-05-22T01:06:34.609Z,99.99
2019-05-22T01:07:34.653Z,99.99
2019-05-22T01:08:34.725Z,99.99
2019-05-22T01:09:34.770Z,99.99
2019-05-22T01:10:34.802Z,99.99
2019-05-22T01:11:34.842Z,99.99
2019-05-22T01:12:34.891Z,99.99
2019-05-22T01:13:34.941Z,99.99
2019-05-22T01:14:42.763Z,99.99
2019-05-22T01:15:35.040Z,99.99
2019-05-22T01:16:35.113Z,99.99
2019-05-22T01:17:35.202Z,99.99
2019-05-22T01:18:35.189Z,99.99
2019-05-22T01:19:35.240Z,99.99
2019-05-22T01:20:35.268Z,99.99
2019-05-22T01:21:35.324Z,99.99
2019-05-22T01:22:35.375Z,99.99
2019-05-22T01:23:35.417Z,99.99
2019-05-22T01:24:35.480Z,99.99
2019-05-22T01:25:35.511Z,99.99
2019-05-22T01:26:35.569Z,99.99
2019-05-22T01:27:35.601Z,99.99
2019-05-22T01:28:35.688Z,99.99
2019-05-22T01:29:35.717Z,99.99
2019-05-22T01:30:35.743Z,99.99
2019-05-22T01:31:35.785Z,99.99
2019-05-22T01:32:35.831Z,99.99
2019-05-22T01:33:35.884Z,99.99
2019-05-22T01:34:35.947Z,99.99
2019-05-22T01:35:36.066Z,99.99
2019-05-22T01:36:36.018Z,99.99
2019-05-22T01:37:36.067Z,99.99
2019-05-22T01:38:36.127Z,99.99
2019-05-22T01:39:36.181Z,99.99
2019-05-22T01:40:36.210Z,99.99
2019-05-22T01:41:36.260Z,99.99
2019-05-22T01:42:36.356Z,99.99
2019-05-22T01:43:36.358Z,99.99
2019-05-22T01:44:36.429Z,99.99
2019-05-22T01:45:36.445Z,99.99
2019-05-22T01:46:36.497Z,99.99
2019-05-22T01:47:36.538Z,99.99
2019-05-22T01:48:36.586Z,99.99
2019-05-22T01:49:36.662Z,99.99
2019-05-22T01:50:36.703Z,99.99
2019-05-22T01:51:36.731Z,99.99
2019-05-22T01:52:36.785Z,99.99
2019-05-22T01:53:36.828Z,99.99
2019-05-22T01:54:36.871Z,99.99
2019-05-22T01:55:36.937Z,99.99
2019-05-22T01:56:36.963Z,99.99
2019-05-22T01:57:37.011Z,99.99
2019-05-22T01:58:37.091Z,99.99
2019-05-22T01:59:37.102Z,99.99
2019-05-22T02:00:37.178Z,99.99
2019-05-22T02:01:37.204Z,99.99
2019-05-22T02:02:37.246Z,99.99
2019-05-22T02:03:37.293Z,99.99
2019-05-22T02:04:37.349Z,99.99
2019-05-22T02:05:37.499Z,99.99
2019-05-22T02:06:37.442Z,99.99
2019-05-22T02:07:37.480Z,99.99
2019-05-22T02:08:37.539Z,99.99
2019-05-22T02:09:37.578Z,99.99
2019-05-22T02:10:37.645Z,99.99
2019-05-22T02:11:37.679Z,99.99
2019-05-22T02:12:37.718Z,99.99
2019-05-22T02:13:37.767Z,99.99
2019-05-22T02:14:37.819Z,99.99
2019-05-22T02:15:37.876Z,99.99
2019-05-22T02:16:37.940Z,99.99
2019-05-22T02:17:38.485Z,99.99
2019-05-22T02:18:38.005Z,99.99
2019-05-22T02:19:38.076Z,99.99
2019-05-22T02:20:38.114Z,99.99
2019-05-22T02:21:38.143Z,99.99
2019-05-22T02:22:38.194Z,99.99
2019-05-22T02:23:38.239Z,99.99
2019-05-22T02:24:38.295Z,99.99
2019-05-22T02:25:38.352Z,99.99
2019-05-22T02:26:38.380Z,99.99
2019-05-22T02:27:38.425Z,99.99
2019-05-22T02:28:38.475Z,99.99
2019-05-22T02:29:38.519Z,99.99
2019-05-22T02:30:38.722Z,99.99
2019-05-22T02:31:38.638Z,99.99
2019-05-22T02:32:38.661Z,99.99
2019-05-22T02:33:38.711Z,99.99
2019-05-22T02:34:38.805Z,99.99
2019-05-22T02:35:38.801Z,99.99
2019-05-22T02:36:38.868Z,99.99
2019-05-22T02:37:38.895Z,99.99
2019-05-22T02:38:38.943Z,99.99
2019-05-22T02:39:38.989Z,99.99
2019-05-22T02:40:39.122Z,99.99
2019-05-22T02:41:39.114Z,99.99
2019-05-22T02:42:39.138Z,99.99
2019-05-22T02:43:39.188Z,99.99
2019-05-22T02:44:39.241Z,99.99
2019-05-22T02:45:39.273Z,99.99
2019-05-22T02:46:39.337Z,99.99
2019-05-22T02:47:39.405Z,99.99
2019-05-22T02:48:42.250Z,99.99
2019-05-22T02:49:39.565Z,99.99
2019-05-22T02:50:39.505Z,99.99
2019-05-22T02:51:39.582Z,99.99
2019-05-22T02:52:39.599Z,99.99
2019-05-22T02:53:39.654Z,99.99
2019-05-22T02:54:39.700Z,99.99
2019-05-22T02:55:39.748Z,99.99
2019-05-22T02:56:39.840Z,99.99
2019-05-22T02:57:39.836Z,99.99
2019-05-22T02:58:39.886Z,99.99
2019-05-22T02:59:39.932Z,99.99
2019-05-22T03:00:39.978Z,99.99
2019-05-22T03:01:40.046Z,99.99
2019-05-22T03:02:40.082Z,99.99
2019-05-22T03:03:40.125Z,99.99
2019-05-22T03:04:40.166Z,99.99
2019-05-22T03:05:40.214Z,99.99
2019-05-22T03:06:40.303Z,99.99
2019-05-22T03:07:40.326Z,99.99
2019-05-22T03:08:40.387Z,99.99
2019-05-22T03:09:40.399Z,99.99
2019-05-22T03:10:40.458Z,99.99
2019-05-22T03:11:40.519Z,99.99
2019-05-22T03:12:40.565Z,99.99
2019-05-22T03:13:40.588Z,99.99
2019-05-22T03:14:40.639Z,99.99
2019-05-22T03:15:40.682Z,99.99
2019-05-22T03:16:40.739Z,99.99
2019-05-22T03:17:40.807Z,99.99
2019-05-22T03:18:40.867Z,99.99
2019-05-22T03:19:40.876Z,99.99
2019-05-22T03:20:40.919Z,99.99
2019-05-22T03:21:40.968Z,99.99
2019-05-22T03:22:41.051Z,99.99
2019-05-22T03:23:41.072Z,99.99
2019-05-22T03:24:41.119Z,99.99
2019-05-22T03:25:41.152Z,99.99
2019-05-22T03:26:41.209Z,99.99
2019-05-22T03:27:41.274Z,99.99
2019-05-22T03:28:41.432Z,99.99
2019-05-22T03:29:41.352Z,99.99
2019-05-22T03:30:41.417Z,99.99
2019-05-22T03:31:41.448Z,99.99
2019-05-22T03:32:43.761Z,99.99
2019-05-22T03:33:41.538Z,99.99
2019-05-22T03:34:41.598Z,99.99
2019-05-22T03:35:41.634Z,99.99
2019-05-22T03:36:41.671Z,99.99
2019-05-22T03:37:41.739Z,99.99
2019-05-22T03:38:41.770Z,99.99
2019-05-22T03:39:41.818Z,99.99
2019-05-22T03:40:41.870Z,99.99
2019-05-22T03:41:41.916Z,99.99
2019-05-22T03:42:41.979Z,99.99
2019-05-22T03:43:42.001Z,99.99
2019-05-22T03:44:42.053Z,99.99
2019-05-22T03:45:42.097Z,99.99
2019-05-22T03:46:42.168Z,99.99
2019-05-22T03:47:42.216Z,99.99
2019-05-22T03:48:42.237Z,99.99
2019-05-22T03:49:42.297Z,99.99
2019-05-22T03:50:42.332Z,99.99
2019-05-22T03:51:42.391Z,99.99
2019-05-22T03:52:42.446Z,99.99
2019-05-22T03:53:42.493Z,99.99
2019-05-22T03:54:42.527Z,99.99
2019-05-22T03:55:42.561Z,99.99
2019-05-22T03:56:42.681Z,99.99
2019-05-22T03:57:42.705Z,99.99
2019-05-22T03:58:42.728Z,99.99
2019-05-22T03:59:42.773Z,99.99
2019-05-22T04:00:43.705Z,99.99
2019-05-22T04:01:42.855Z,99.99
2019-05-22T04:02:42.895Z,99.99
2019-05-22T04:03:42.970Z,99.99
2019-05-22T04:04:42.990Z,99.99
2019-05-22T04:05:43.045Z,99.99
2019-05-22T04:06:43.083Z,99.99
2019-05-22T04:07:43.133Z,99.99
2019-05-22T04:08:43.319Z,99.99
2019-05-22T04:09:43.244Z,99.99
2019-05-22T04:10:43.346Z,99.99
2019-05-22T04:11:43.316Z,99.99
2019-05-22T04:12:43.374Z,99.99
2019-05-22T04:13:43.431Z,99.99
2019-05-22T04:14:43.496Z,99.99
2019-05-22T04:15:43.503Z,99.99
2019-05-22T04:16:43.557Z,99.99
2019-05-22T04:17:43.604Z,99.99
2019-05-22T04:18:43.685Z,99.99
2019-05-22T04:19:49.951Z,99.99
2019-05-22T04:20:43.736Z,99.99
2019-05-22T04:21:43.784Z,99.99
2019-05-22T04:22:43.840Z,99.99
2019-05-22T04:23:43.929Z,99.99
2019-05-22T04:24:43.924Z,99.99
2019-05-22T04:25:43.981Z,99.99
2019-05-22T04:26:44.028Z,99.99
2019-05-22T04:27:44.081Z,99.99
2019-05-22T04:28:44.152Z,99.99
2019-05-22T04:29:44.162Z,99.99
2019-05-22T04:30:44.210Z,99.99
2019-05-22T04:31:44.261Z,99.99
2019-05-22T04:32:44.306Z,99.99
2019-05-22T04:33:44.376Z,99.99
2019-05-22T04:34:44.418Z,99.99
2019-05-22T04:35:44.499Z,99.99
2019-05-22T04:36:44.488Z,99.99
2019-05-22T04:37:44.537Z,99.99
2019-05-22T04:38:44.591Z,99.99
2019-05-22T04:39:44.650Z,99.99
2019-05-22T04:40:44.698Z,99.99
2019-05-22T04:41:44.723Z,99.99
2019-05-22T04:42:44.773Z,99.99
2019-05-22T04:43:44.814Z,99.99
2019-05-22T04:44:44.865Z,99.99
2019-05-22T04:45:45.032Z,99.99
2019-05-22T04:46:44.969Z,99.99
2019-05-22T04:47:45.054Z,99.99
2019-05-22T04:48:46.434Z,99.99
2019-05-22T04:49:45.098Z,99.99
2019-05-22T04:50:45.172Z,99.99
2019-05-22T04:51:45.189Z,99.99
2019-05-22T04:52:45.240Z,99.99
2019-05-22T04:53:45.284Z,99.99
2019-05-22T04:54:45.335Z,99.99
2019-05-22T04:55:45.406Z,99.99
2019-05-22T04:56:45.428Z,99.99
2019-05-22T04:57:45.470Z,99.99
2019-05-22T04:58:45.519Z,99.99
2019-05-22T04:59:45.567Z,99.99
2019-05-22T05:00:45.645Z,99.99
2019-05-22T05:01:45.667Z,99.99
2019-05-22T05:02:45.711Z,99.99
2019-05-22T05:03:45.803Z,99.99
2019-05-22T05:04:45.799Z,99.99
2019-05-22T05:05:45.876Z,99.99
2019-05-22T05:06:45.894Z,99.99
2019-05-22T05:07:45.944Z,99.99
2019-05-22T05:08:45.989Z,99.99
2019-05-22T05:09:46.042Z,99.99
2019-05-22T05:10:46.113Z,99.99
2019-05-22T05:11:46.130Z,99.99
2019-05-22T05:12:46.175Z,99.99
2019-05-22T05:13:46.222Z,99.99
2019-05-22T05:14:46.318Z,99.99
2019-05-22T05:15:46.330Z,99.99
2019-05-22T05:16:46.390Z,99.99
2019-05-22T05:17:46.407Z,99.99
2019-05-22T05:18:46.461Z,99.99
2019-05-22T05:19:46.504Z,99.99
2019-05-22T05:20:46.592Z,99.99
2019-05-22T05:21:46.616Z,99.99
2019-05-22T05:22:46.647Z,99.99
2019-05-22T05:23:46.689Z,99.99
2019-05-22T05:24:46.739Z,99.99
2019-05-22T05:25:46.787Z,99.99
2019-05-22T05:26:46.851Z,99.99
2019-05-22T05:27:46.882Z,99.99
2019-05-22T05:28:46.924Z,99.99
2019-05-22T05:29:46.975Z,99.99
2019-05-22T05:30:47.023Z,99.99
2019-05-22T05:31:47.090Z,99.99
2019-05-22T05:32:47.113Z,99.99
2019-05-22T05:33:47.167Z,99.99
2019-05-22T05:34:47.219Z,99.99
2019-05-22T05:35:47.259Z,99.99
2019-05-22T05:36:47.545Z,99.99
2019-05-22T05:37:47.363Z,99.99
2019-05-22T05:38:47.396Z,99.99
2019-05-22T05:39:47.442Z,99.99
2019-05-22T05:40:47.496Z,99.99
2019-05-22T05:41:47.647Z,99.99
2019-05-22T05:42:47.585Z,99.99
2019-05-22T05:43:47.721Z,99.99
2019-05-22T05:44:47.697Z,99.99
2019-05-22T05:45:47.723Z,99.99
2019-05-22T05:46:47.805Z,99.99
2019-05-22T05:47:47.819Z,99.99
2019-05-22T05:48:47.874Z,99.99
2019-05-22T05:49:47.912Z,99.99
2019-05-22T05:50:48.079Z,99.99
2019-05-22T05:51:48.027Z,99.99
2019-05-22T05:52:48.078Z,99.99
2019-05-22T05:53:48.103Z,99.99
2019-05-22T05:54:48.149Z,99.99
2019-05-22T05:55:48.198Z,99.99
2019-05-22T05:56:48.249Z,99.99
2019-05-22T05:57:48.318Z,99.99
2019-05-22T05:58:48.337Z,99.99
2019-05-22T05:59:48.390Z,99.99
2019-05-22T06:00:48.435Z,99.99
2019-05-22T06:01:48.505Z,99.99
2019-05-22T06:02:56.490Z,99.99
2019-05-22T06:03:48.574Z,99.99
2019-05-22T06:04:48.619Z,99.99
2019-05-22T06:05:48.665Z,99.99
2019-05-22T06:06:48.723Z,99.99
2019-05-22T06:07:48.782Z,99.99
2019-05-22T06:08:48.807Z,99.99
2019-05-22T06:09:48.857Z,99.99
2019-05-22T06:10:48.907Z,99.99
2019-05-22T06:11:48.972Z,99.99
2019-05-22T06:12:49.103Z,99.99
2019-05-22T06:13:49.047Z,99.99
2019-05-22T06:14:49.093Z,99.99
2019-05-22T06:15:49.139Z,99.99
2019-05-22T06:16:49.212Z,99.99
2019-05-22T06:17:49.233Z,99.99
2019-05-22T06:18:49.312Z,99.99
2019-05-22T06:19:49.336Z,99.99
2019-05-22T06:21:03.227Z,99.99
2019-05-22T06:21:49.426Z,99.99
2019-05-22T06:22:49.495Z,99.99
2019-05-22T06:23:49.518Z,99.99
2019-05-22T06:24:49.682Z,99.99
2019-05-22T06:25:49.618Z,99.99
2019-05-22T06:26:49.659Z,99.99
2019-05-22T06:27:49.746Z,99.99
2019-05-22T06:28:49.766Z,99.99
2019-05-22T06:29:49.800Z,99.99
2019-05-22T06:30:49.868Z,99.99
2019-05-22T06:31:49.894Z,99.99
2019-05-22T06:32:49.968Z,99.99
2019-05-22T06:33:49.989Z,99.99
2019-05-22T06:34:50.036Z,99.99
2019-05-22T06:35:50.087Z,99.99
2019-05-22T06:36:50.133Z,99.99
2019-05-22T06:37:50.199Z,99.99
2019-05-22T06:38:50.240Z,99.99
2019-05-22T06:39:50.275Z,99.99
2019-05-22T06:40:50.344Z,99.99
2019-05-22T06:41:50.371Z,99.99
2019-05-22T06:42:50.493Z,99.99
2019-05-22T06:43:50.458Z,99.99
2019-05-22T06:44:50.530Z,99.99
2019-05-22T06:45:50.605Z,99.99
2019-05-22T06:46:50.616Z,99.99
2019-05-22T06:47:50.652Z,99.99
2019-05-22T06:48:50.698Z,99.99
2019-05-22T06:49:50.781Z,99.99
2019-05-22T06:50:50.816Z,99.99
2019-05-22T06:51:50.856Z,99.99
2019-05-22T06:52:50.886Z,99.99
2019-05-22T06:53:51.036Z,99.99
2019-05-22T06:54:51.033Z,99.99
2019-05-22T06:55:51.027Z,99.99
2019-05-22T06:56:51.091Z,99.99
2019-05-22T06:57:51.130Z,99.99
2019-05-22T06:58:51.174Z,99.99
2019-05-22T07:00:11.402Z,99.99
2019-05-22T07:00:51.279Z,99.99
2019-05-22T07:01:51.321Z,99.99
2019-05-22T07:02:51.362Z,99.99
2019-05-22T07:03:51.425Z,99.99
2019-05-22T07:04:51.625Z,99.99
2019-05-22T07:05:51.513Z,99.99
2019-05-22T07:06:51.551Z,99.99
2019-05-22T07:07:51.601Z,99.99
2019-05-22T07:08:51.648Z,99.99
2019-05-22T07:09:51.720Z,99.99
2019-05-22T07:10:51.741Z,99.99
2019-05-22T07:11:51.814Z,99.99
2019-05-22T07:12:51.840Z,99.99
2019-05-22T07:13:51.891Z,99.99
2019-05-22T07:14:51.992Z,99.99
2019-05-22T07:15:52.073Z,99.99
2019-05-22T07:16:52.025Z,99.99
2019-05-22T07:17:52.076Z,99.99
2019-05-22T07:18:52.123Z,99.99
2019-05-22T07:19:52.208Z,99.99
2019-05-22T07:20:52.449Z,99.99
2019-05-22T07:21:52.265Z,99.99
2019-05-22T07:22:52.325Z,99.99
2019-05-22T07:23:52.361Z,99.99
2019-05-22T07:24:52.412Z,99.99
2019-05-22T07:25:52.478Z,99.99
2019-05-22T07:26:52.521Z,99.99
2019-05-22T07:27:52.552Z,99.99
2019-05-22T07:28:52.596Z,99.99
2019-05-22T07:29:52.641Z,99.99
2019-05-22T07:30:52.724Z,99.99
2019-05-22T07:31:52.741Z,99.99
2019-05-22T07:32:52.784Z,99.99
2019-05-22T07:33:52.835Z,99.99
2019-05-22T07:34:52.882Z,99.99
2019-05-22T07:36:08.556Z,99.99
2019-05-22T07:36:52.982Z,99.99
2019-05-22T07:37:53.028Z,99.99
2019-05-22T07:38:53.070Z,99.99
2019-05-22T07:39:53.123Z,99.99
2019-05-22T07:40:53.184Z,99.99
2019-05-22T07:41:53.220Z,99.99
2019-05-22T07:42:53.258Z,99.99
2019-05-22T07:43:53.312Z,99.99
2019-05-22T07:44:53.377Z,99.99
2019-05-22T07:45:53.423Z,99.99
2019-05-22T07:46:53.450Z,99.99
2019-05-22T07:47:53.515Z,99.99
2019-05-22T07:48:53.557Z,99.99
2019-05-22T07:49:53.615Z,99.99
2019-05-22T07:50:53.665Z,99.99
2019-05-22T07:52:00.548Z,99.99
2019-05-22T07:52:53.732Z,99.99
2019-05-22T07:53:53.782Z,99.99
2019-05-22T07:54:53.839Z,99.99
2019-05-22T07:55:53.913Z,99.99
2019-05-22T07:56:53.945Z,99.99
2019-05-22T07:57:53.981Z,99.99
2019-05-22T07:58:54.026Z,99.99
2019-05-22T07:59:54.071Z,99.99
2019-05-22T08:00:54.122Z,99.99
2019-05-22T08:01:54.180Z,99.99
2019-05-22T08:02:54.213Z,99.99
2019-05-22T08:03:54.257Z,99.99
2019-05-22T08:04:54.312Z,99.99
2019-05-22T08:05:54.375Z,99.99
2019-05-22T08:06:54.441Z,99.99
2019-05-22T08:07:54.472Z,99.99
2019-05-22T08:08:54.500Z,99.99
2019-05-22T08:09:54.670Z,99.99
2019-05-22T08:10:54.712Z,99.99
2019-05-22T08:11:54.660Z,99.99
2019-05-22T08:12:54.708Z,99.99
2019-05-22T08:13:54.752Z,99.99
2019-05-22T08:14:54.786Z,99.99
2019-05-22T08:15:54.841Z,99.99
2019-05-22T08:16:54.909Z,99.99
2019-05-22T08:17:54.929Z,99.99
2019-05-22T08:18:54.990Z,99.99
2019-05-22T08:19:55.024Z,99.99
2019-05-22T08:20:55.086Z,99.99
2019-05-22T08:22:06.671Z,99.99
2019-05-22T08:22:55.183Z,99.99
2019-05-22T08:23:55.225Z,99.99
2019-05-22T08:24:55.270Z,99.99
2019-05-22T08:25:55.334Z,99.99
2019-05-22T08:26:55.413Z,99.99
2019-05-22T08:27:55.410Z,99.99
2019-05-22T08:28:55.469Z,99.99
2019-05-22T08:29:56.982Z,99.99
2019-05-22T08:30:55.564Z,99.99
2019-05-22T08:31:55.630Z,99.99
2019-05-22T08:32:55.702Z,99.99
2019-05-22T08:33:55.727Z,99.99
2019-05-22T08:34:55.755Z,99.99
2019-05-22T08:35:55.803Z,99.99
2019-05-22T08:36:55.855Z,99.99
2019-05-22T08:37:55.918Z,99.99
2019-05-22T08:38:55.990Z,99.99
2019-05-22T08:39:56.016Z,99.99
2019-05-22T08:40:56.052Z,99.99
2019-05-22T08:41:56.105Z,99.99
2019-05-22T08:42:56.179Z,99.99
2019-05-22T08:44:14.445Z,99.99
2019-05-22T08:44:56.256Z,99.99
2019-05-22T08:45:56.296Z,99.99
2019-05-22T08:46:56.350Z,99.99
2019-05-22T08:47:56.418Z,99.99
2019-05-22T08:48:56.440Z,99.99
2019-05-22T08:49:56.495Z,99.99
2019-05-22T08:50:56.548Z,99.99
2019-05-22T08:51:56.589Z,99.99
2019-05-22T08:52:56.672Z,99.99
2019-05-22T08:53:56.696Z,99.99
2019-05-22T08:54:56.756Z,99.99
2019-05-22T08:55:56.791Z,99.99
2019-05-22T08:56:56.837Z,99.99
2019-05-22T08:57:56.902Z,99.99
2019-05-22T08:58:56.951Z,99.99
2019-05-22T08:59:56.982Z,99.99
2019-05-22T09:00:57.037Z,99.99
2019-05-22T09:01:57.106Z,99.99
2019-05-22T09:02:57.176Z,99.99
2019-05-22T09:03:57.223Z,99.99
2019-05-22T09:04:57.233Z,99.99
2019-05-22T09:05:57.458Z,99.99
2019-05-22T09:06:57.324Z,99.99
2019-05-22T09:07:57.389Z,99.99
2019-05-22T09:08:57.446Z,99.99
2019-05-22T09:09:57.497Z,99.99
2019-05-22T09:10:57.541Z,99.99
2019-05-22T09:11:57.572Z,99.99
2019-05-22T09:12:57.703Z,99.99
2019-05-22T09:13:57.677Z,99.99
2019-05-22T09:14:57.733Z,99.99
2019-05-22T09:16:01.617Z,99.99
2019-05-22T09:16:57.823Z,99.99
2019-05-22T09:17:57.866Z,99.99
2019-05-22T09:18:57.925Z,99.99
2019-05-22T09:19:57.987Z,99.99
2019-05-22T09:20:58.017Z,99.99
2019-05-22T09:21:58.083Z,99.99
2019-05-22T09:22:58.117Z,99.99
2019-05-22T09:23:58.161Z,99.99
2019-05-22T09:24:58.229Z,99.99
2019-05-22T09:25:58.288Z,99.99
2019-05-22T09:27:02.159Z,99.99
2019-05-22T09:27:58.363Z,99.99
2019-05-22T09:28:58.415Z,99.99
2019-05-22T09:29:58.483Z,99.99
2019-05-22T09:30:58.527Z,99.99
2019-05-22T09:31:58.570Z,99.99
2019-05-22T09:32:58.608Z,99.99
2019-05-22T09:33:58.658Z,99.99
2019-05-22T09:34:58.736Z,99.99
2019-05-22T09:35:58.755Z,99.99
2019-05-22T09:36:58.815Z,99.99
2019-05-22T09:37:58.999Z,99.99
2019-05-22T09:38:58.906Z,99.99
2019-05-22T09:39:58.971Z,99.99
2019-05-22T09:40:59.023Z,99.99
2019-05-22T09:41:59.058Z,99.99
2019-05-22T09:42:59.108Z,99.99
2019-05-22T09:43:59.161Z,99.99
2019-05-22T09:44:59.248Z,99.99
2019-05-22T09:45:59.274Z,99.99
2019-05-22T09:46:59.301Z,99.99
2019-05-22T09:47:59.368Z,99.99
2019-05-22T09:48:59.409Z,99.99
2019-05-22T09:49:59.458Z,99.99
2019-05-22T09:50:59.524Z,99.99
2019-05-22T09:51:59.552Z,99.99
2019-05-22T09:52:59.601Z,99.99
2019-05-22T09:53:59.650Z,99.99
2019-05-22T09:54:59.700Z,99.99
2019-05-22T09:55:59.774Z,99.99
2019-05-22T09:56:59.799Z,99.99
2019-05-22T09:57:59.854Z,99.99
2019-05-22T09:58:59.910Z,99.99
2019-05-22T09:59:59.946Z,99.99
2019-05-22T10:01:00.015Z,99.99
2019-05-22T10:02:00.044Z,99.99
2019-05-22T10:03:00.097Z,99.99
2019-05-22T10:04:00.146Z,99.99
2019-05-22T10:05:00.409Z,99.99
2019-05-22T10:06:00.348Z,99.99
2019-05-22T10:07:00.291Z,99.99
2019-05-22T10:08:01.587Z,99.99
2019-05-22T10:09:00.392Z,99.99
2019-05-22T10:10:00.451Z,99.99
2019-05-22T10:11:00.516Z,99.99
2019-05-22T10:12:00.560Z,99.99
2019-05-22T10:13:00.603Z,99.99
2019-05-22T10:14:00.647Z,99.99
2019-05-22T10:15:01.436Z,99.99
2019-05-22T10:16:00.826Z,99.99
2019-05-22T10:17:00.806Z,99.99
2019-05-22T10:18:00.845Z,99.99
2019-05-22T10:19:00.896Z,99.99
2019-05-22T10:20:00.935Z,99.99
2019-05-22T10:21:00.991Z,99.99
2019-05-22T10:22:01.055Z,99.99
2019-05-22T10:23:14.180Z,99.99
2019-05-22T10:24:01.127Z,99.99
2019-05-22T10:25:15.039Z,99.99
2019-05-22T10:26:01.226Z,99.99
2019-05-22T10:27:01.316Z,99.99
2019-05-22T10:28:01.327Z,99.99
2019-05-22T10:29:01.376Z,99.99
2019-05-22T10:30:01.499Z,99.99
2019-05-22T10:31:01.902Z,99.99
2019-05-22T10:32:01.550Z,99.99
2019-05-22T10:33:01.585Z,99.99
2019-05-22T10:34:01.734Z,99.99
2019-05-22T10:35:01.685Z,99.99
2019-05-22T10:36:01.793Z,99.99
2019-05-22T10:37:01.800Z,99.99
2019-05-22T10:38:01.848Z,99.99
2019-05-22T10:39:01.914Z,99.99
2019-05-22T10:40:01.935Z,99.99
2019-05-22T10:41:01.999Z,99.99
2019-05-22T10:42:02.028Z,99.99
2019-05-22T10:43:02.153Z,99.99
2019-05-22T10:44:02.138Z,99.99
2019-05-22T10:45:02.169Z,99.99
2019-05-22T10:46:02.261Z,99.99
2019-05-22T10:47:02.272Z,99.99
2019-05-22T10:48:02.351Z,99.99
2019-05-22T10:49:02.369Z,99.99
2019-05-22T10:50:02.418Z,99.99
2019-05-22T10:51:02.463Z,99.99
2019-05-22T10:52:02.534Z,99.99
2019-05-22T10:53:02.594Z,99.99
2019-05-22T10:54:02.608Z,99.99
2019-05-22T10:55:02.674Z,99.99
2019-05-22T10:56:02.858Z,99.99
2019-05-22T10:57:02.779Z,99.99
2019-05-22T10:58:02.841Z,99.99
2019-05-22T10:59:02.895Z,99.99
2019-05-22T11:00:02.903Z,99.99
2019-05-22T11:01:02.967Z,99.99
2019-05-22T11:02:03.038Z,99.99
2019-05-22T11:03:03.088Z,99.99
2019-05-22T11:04:03.109Z,99.99
2019-05-22T11:05:03.156Z,99.99
2019-05-22T11:06:07.497Z,99.99
2019-05-22T11:07:03.255Z,99.99
2019-05-22T11:08:03.325Z,99.99
2019-05-22T11:09:03.382Z,99.99
2019-05-22T11:10:03.401Z,99.99
2019-05-22T11:11:03.458Z,99.99
2019-05-22T11:12:03.505Z,99.99
2019-05-22T11:13:03.547Z,99.99
2019-05-22T11:14:03.617Z,99.99
2019-05-22T11:15:03.645Z,99.99
2019-05-22T11:16:03.708Z,99.99
2019-05-22T11:17:03.760Z,99.99
2019-05-22T11:18:03.800Z,99.99
2019-05-22T11:19:03.885Z,99.99
2019-05-22T11:20:03.898Z,99.99
2019-05-22T11:21:03.945Z,99.99
2019-05-22T11:22:03.996Z,99.99
2019-05-22T11:23:04.042Z,99.99
2019-05-22T11:24:04.115Z,99.99
2019-05-22T11:25:04.223Z,99.99
2019-05-22T11:26:04.185Z,99.99
2019-05-22T11:27:04.783Z,99.99
2019-05-22T11:28:04.289Z,99.99
2019-05-22T11:29:04.376Z,99.99
2019-05-22T11:30:04.411Z,99.99
2019-05-22T11:31:04.521Z,99.99
2019-05-22T11:32:04.488Z,99.99
2019-05-22T11:33:04.533Z,99.99
2019-05-22T11:34:04.610Z,99.99
2019-05-22T11:35:04.634Z,99.99
2019-05-22T11:36:04.695Z,99.99
2019-05-22T11:37:04.739Z,99.99
2019-05-22T11:38:04.778Z,99.99
2019-05-22T11:39:04.854Z,99.99
2019-05-22T11:40:04.906Z,99.99
2019-05-22T11:41:04.931Z,99.99
2019-05-22T11:42:05.006Z,99.15
2019-05-22T11:43:05.051Z,99.99
2019-05-22T11:44:05.078Z,99.99
2019-05-22T11:45:05.167Z,99.99
2019-05-22T11:46:05.177Z,99.99
2019-05-22T11:47:05.229Z,99.99
2019-05-22T11:48:05.298Z,99.99
2019-05-22T11:49:05.336Z,99.99
2019-05-22T11:50:05.413Z,99.99
2019-05-22T11:51:05.430Z,99.99
2019-05-22T11:52:05.486Z,99.99
2019-05-22T11:53:05.526Z,99.99
2019-05-22T11:54:09.355Z,99.99
2019-05-22T11:55:05.648Z,99.99
2019-05-22T11:56:05.706Z,99.99
2019-05-22T11:57:05.729Z,99.99
2019-05-22T11:58:05.787Z,99.99
2019-05-22T11:59:05.834Z,99.99
2019-05-22T12:00:09.071Z,99.99
2019-05-22T12:01:05.978Z,99.99
2019-05-22T12:02:05.987Z,99.99
2019-05-22T12:03:06.037Z,99.99
2019-05-22T12:04:06.083Z,99.99
2019-05-22T12:05:06.190Z,99.99
2019-05-22T12:06:06.209Z,99.99
2019-05-22T12:07:06.234Z,99.99
2019-05-22T12:08:06.302Z,99.99
2019-05-22T12:09:06.395Z,99.99
2019-05-22T12:10:06.410Z,99.99
2019-05-22T12:11:06.492Z,99.99
2019-05-22T12:12:06.516Z,99.99
2019-05-22T12:13:06.550Z,99.99
2019-05-22T12:14:06.612Z,99.99
2019-05-22T12:15:06.637Z,99.99
2019-05-22T12:16:06.725Z,99.99
2019-05-22T12:17:06.762Z,99.99
2019-05-22T12:18:06.787Z,99.99
2019-05-22T12:19:06.839Z,99.99
2019-05-22T12:20:06.904Z,99.99
2019-05-22T12:21:07.020Z,99.99
2019-05-22T12:22:07.022Z,99.05
2019-05-22T12:23:07.173Z,99.63
2019-05-22T12:24:07.227Z,98.48
2019-05-22T12:25:07.152Z,96.75
2019-05-22T12:26:07.230Z,94.45
2019-05-22T12:27:07.375Z,97.33
2019-05-22T12:28:07.305Z,96.56
2019-05-22T12:29:07.353Z,97.38
2019-05-22T12:30:07.428Z,98.72
2019-05-22T12:31:07.458Z,95.45
2019-05-22T12:32:07.681Z,95.45
2019-05-22T12:33:13.320Z,97.71
2019-05-22T12:34:07.612Z,95.31
2019-05-22T12:35:07.665Z,93.96
2019-05-22T12:36:07.745Z,91.90
2019-05-22T12:37:07.768Z,92.96
2019-05-22T12:38:07.827Z,95.70
2019-05-22T12:39:07.936Z,95.12
2019-05-22T12:40:07.924Z,93.19
2019-05-22T12:41:08.009Z,93.68
2019-05-22T12:42:08.057Z,93.58
2019-05-22T12:43:08.086Z,91.28
2019-05-22T12:44:08.151Z,91.71
2019-05-22T12:45:08.201Z,92.82
2019-05-22T12:46:08.296Z,94.45
2019-05-22T12:47:08.327Z,94.98
2019-05-22T12:48:08.365Z,96.75
2019-05-22T12:49:09.133Z,94.88
2019-05-22T12:50:08.492Z,96.42
2019-05-22T12:51:08.513Z,96.56
2019-05-22T12:52:08.587Z,92.82
2019-05-22T12:53:08.617Z,94.45